Blackpool, United Kingdom

7:10 PM GMT on February 08, 2016 (GMT +0000)
Blackpool | | Change Station
CLOSE
Current Station
Airport
Location: Blackpool,
Elevation: 33 ft
Nearby Weather Stations

Elev 33 ft 53.77 °N, 3.04 °W | Updated 20 minutes ago

Mostly Cloudy
Mostly Cloudy
46 °F
Feels Like 36 °F
N
34
Wind Variable Wind from WSW
Gusts 47 mph

Today
High -- | Low -- °F
--% Chance of Precip.
Yesterday
High -- | Low -- °F
Precip. -- in
Pressure 29.00 in
Visibility 6.2 miles
Clouds Few 1000 ft
Scattered Clouds 1600 ft
Mostly Cloudy 2500 ft
Windchill 36 °F
Dew Point 43 °F
Humidity 87%
Rainfall 0.00 in
Snow Depth Not available.
7:46 AM 5:06 PM
New Moon, 0% visible
METAR EGNH 081850Z 25030G41KT 9999 FEW010 SCT016 BKN025 08/06 Q0982
Pressure 29.00 in
Visibility 6.2 miles
Clouds Few 1000 ft
Scattered Clouds 1600 ft
Mostly Cloudy 2500 ft
Windchill 36 °F
Dew Point 43 °F
Humidity 87%
Rainfall 0.00 in
Snow Depth Not available.
7:46 AM 5:06 PM
New Moon, 0% visible
METAR EGNH 081850Z 25030G41KT 9999 FEW010 SCT016 BKN025 08/06 Q0982

10-Day Weather Forecast

Almanac

Astronomy

Feb. 08, 2016 Rise Set
Actual Time
Civil Twilight
Nautical Twilight
Astronomical Twilight
Moon
Length of Visible Light
Length of Day
Tomorrow will be .
, % of the Moon is Illuminated

Today's Extremes

Country Highs Country Lows

Community

WunderPhotos

Upload Photos

1,891,485 photos uploaded!

WunderBlog® & News

Nearby

Air Quality

  Air Quality AQ Index Pollutant
Not available.

Snow Depth

Station Depth Elevation

Earthquake Activity

City Distance Mag. Time & Date
Minimum magnitude displayed is 2.5.

Coastal Water Temperatures

Place Temperature

Stations

Nearby Weather Stations

Station Location Temp. Windchill Dew Point Humidity Wind Precip. Elev Updated Type